Weather reports worldwide

Advertisment
Bari, Italy (16271): temperature & dewpoint: 16.02.2019 22:00:00 - 22.02.2019 22:00:00 (CET)Bari, Italy (16271): wind speed: 16.02.2019 22:00:00 - 22.02.2019 22:00:00 (CET)Bari, Italy (16271): wind direction: 16.02.2019 22:00:00 - 22.02.2019 22:00:00 (CET)Bari, Italy (16271): reduced air pressure: 16.02.2019 22:00:00 - 22.02.2019 22:00:00 (CET)
Date & Time tt [°C] td [°C] ff [km/h] ff [kn] dd ppp [hPa]
22.02.2019 22:00:00 13,7 8,5 41 22 WNW 1018,7
22.02.2019 21:00:00 12,8 9,0 29 16 WNW 1019,1
22.02.2019 20:00:00 12,9 8,9 22 12 WNW 1019,3
22.02.2019 19:00:00 13,0 8,2 29 16 WNW 1019,8
22.02.2019 18:00:00 13,4 7,1 22 12 WNW 1019,7
22.02.2019 17:00:00 13,5 7,0 21 11 NW 1019,4
22.02.2019 16:00:00 13,9 9,9 22 12 NW 1019,9
22.02.2019 15:00:00 13,5 7,9 21 11 NW 1020,4
22.02.2019 14:00:00 13,9 9,3 22 12 NNW -
22.02.2019 13:00:00 - - - - - -
22.02.2019 12:00:00 13,2 7,6 21 11 NW 1021,8
22.02.2019 11:00:00 12,5 7,7 18 10 NW 1022,6
22.02.2019 10:00:00 12,1 7,4 16 9 NNW 1022,6
22.02.2019 09:00:00 11,4 7,3 18 10 WNW 1023,2
22.02.2019 08:00:00 9,5 5,0 13 7 W 1023,2
22.02.2019 07:00:00 8,7 4,7 9 5 WSW 1023,1
22.02.2019 06:00:00 8,2 4,7 11 6 WSW 1023,2
22.02.2019 05:00:00 8,0 4,5 9 5 WSW 1024,0
22.02.2019 04:00:00 7,8 4,5 9 5 WSW 1024,4
22.02.2019 03:00:00 7,9 4,6 8 4 WSW 1025,0
22.02.2019 02:00:00 8,7 5,6 9 5 W 1025,8
22.02.2019 01:00:00 8,9 5,6 11 6 WSW 1026,1
22.02.2019 00:00:00 9,5 6,0 13 7 W 1026,5
21.02.2019 23:00:00 9,6 6,3 9 5 WNW 1026,6
21.02.2019 22:00:00 9,9 6,4 11 6 WSW 1026,7
21.02.2019 21:00:00 10,8 6,9 11 6 W 1026,6
21.02.2019 20:00:00 11,8 8,2 8 4 WNW 1026,5
21.02.2019 19:00:00 12,3 9,1 13 7 NW 1026,7
21.02.2019 18:00:00 12,2 8,2 15 8 NW 1026,6
21.02.2019 17:00:00 12,7 8,9 18 10 NW 1026,7
21.02.2019 16:00:00 13,2 9,0 18 10 NW 1026,7
21.02.2019 15:00:00 13,4 9,0 21 11 NNW 1027,0
21.02.2019 14:00:00 13,4 8,8 16 9 NW 1027,3
21.02.2019 13:00:00 12,7 8,3 16 9 NW 1027,7
21.02.2019 12:00:00 12,6 7,4 21 11 NW 1028,2
21.02.2019 11:00:00 12,4 8,6 13 7 NW 1028,4
21.02.2019 10:00:00 11,6 7,9 9 5 NW 1028,3
21.02.2019 09:00:00 10,2 8,4 9 5 W 1027,9
21.02.2019 08:00:00 8,6 7,0 15 8 WSW 1027,5
21.02.2019 07:00:00 8,1 6,5 13 7 WSW 1026,8
21.02.2019 06:00:00 8,1 6,5 13 7 WSW 1026,7
21.02.2019 05:00:00 8,1 6,5 15 8 WSW 1026,6
21.02.2019 04:00:00 8,3 6,7 15 8 WSW 1026,2
21.02.2019 03:00:00 8,6 6,0 13 7 WSW 1026,2
21.02.2019 02:00:00 8,9 6,0 13 7 W 1026,4
21.02.2019 01:00:00 9,2 5,7 13 7 W 1026,2
21.02.2019 00:00:00 10,0 6,5 13 7 W 1026,1
20.02.2019 23:00:00 10,4 6,7 11 6 W 1025,9
20.02.2019 22:00:00 10,2 6,3 11 6 W 1026,0
20.02.2019 21:00:00 10,8 7,1 8 4 WNW 1025,8
20.02.2019 20:00:00 12,0 8,0 8 4 NW 1025,4
20.02.2019 19:00:00 12,0 8,0 9 5 WNW 1025,2
20.02.2019 18:00:00 12,2 8,4 13 7 NW 1024,7
20.02.2019 17:00:00 13,2 8,8 13 7 NW 1024,4
20.02.2019 16:00:00 13,5 8,9 16 9 NNW 1024,5
20.02.2019 15:00:00 13,5 9,3 16 9 NW 1024,5
20.02.2019 14:00:00 13,4 9,2 18 10 NW 1024,4
20.02.2019 13:00:00 13,3 8,9 15 8 NNW 1024,7
20.02.2019 12:00:00 12,8 8,4 15 8 NW 1025,2
20.02.2019 11:00:00 12,2 8,2 16 9 WNW 1025,3
20.02.2019 10:00:00 11,4 7,7 15 8 W 1025,0
20.02.2019 09:00:00 10,1 6,8 11 6 W 1024,8
20.02.2019 08:00:00 8,5 5,2 13 7 WSW 1024,3
20.02.2019 07:00:00 8,6 5,1 15 8 W 1023,6
20.02.2019 06:00:00 8,9 5,6 16 9 W 1023,3
20.02.2019 05:00:00 8,6 5,3 15 8 W 1023,1
20.02.2019 04:00:00 8,2 4,9 13 7 W 1023,0
20.02.2019 03:00:00 8,2 4,7 11 6 W 1023,1
20.02.2019 02:00:00 8,4 4,7 11 6 WSW 1023,3
20.02.2019 01:00:00 8,5 5,2 8 4 WNW 1023,3
20.02.2019 00:00:00 9,1 5,6 9 5 WNW 1022,8
19.02.2019 23:00:00 9,6 6,3 8 4 WNW 1022,8
19.02.2019 22:00:00 10,2 6,7 5 3 NW 1022,9
19.02.2019 21:00:00 11,3 7,4 5 3 NW 1022,7
19.02.2019 20:00:00 12,0 8,2 5 3 NW 1022,5
19.02.2019 19:00:00 12,6 8,4 2 1 NW 1022,6
19.02.2019 18:00:00 12,7 7,9 0 0 N 1022,3
19.02.2019 17:00:00 13,1 7,9 2 1 NW 1022,4
19.02.2019 16:00:00 14,0 8,3 5 3 NW 1022,5
19.02.2019 15:00:00 14,4 8,5 8 4 NW 1022,5
19.02.2019 14:00:00 14,5 8,4 8 4 NW 1022,7
19.02.2019 13:00:00 14,2 7,4 8 4 WSW 1023,3
19.02.2019 12:00:00 14,0 7,2 8 4 WSW 1023,9
19.02.2019 11:00:00 13,6 7,3 5 3 SW 1024,1
19.02.2019 10:00:00 12,7 6,4 4 2 SW 1023,9
19.02.2019 09:00:00 10,0 4,3 4 2 SSW 1023,8
19.02.2019 08:00:00 7,0 1,8 9 5 SSW 1023,5
19.02.2019 07:00:00 6,7 1,1 11 6 SSW 1023,1
19.02.2019 06:00:00 6,8 1,2 9 5 SSW 1023,0
19.02.2019 05:00:00 7,0 2,0 9 5 SSW 1022,9
19.02.2019 04:00:00 6,9 1,9 8 4 SSW 1022,9
19.02.2019 03:00:00 7,5 2,1 11 6 SSW 1023,2
19.02.2019 02:00:00 7,8 2,4 8 4 SSE 1023,6
19.02.2019 01:00:00 7,6 2,6 9 5 SE 1023,7
19.02.2019 00:00:00 8,3 3,3 0 0 N 1024,0
18.02.2019 23:00:00 8,3 2,7 2 1 ESE 1024,0
18.02.2019 22:00:00 8,9 2,6 5 3 ESE 1024,2
18.02.2019 21:00:00 10,3 4,8 5 3 ESE 1024,1
18.02.2019 20:00:00 10,9 5,4 8 4 ENE 1024,2
18.02.2019 19:00:00 11,9 6,1 8 4 NNE 1024,1
18.02.2019 18:00:00 12,2 5,5 4 2 NW 1023,9
18.02.2019 17:00:00 12,4 5,9 5 3 NW 1023,8
18.02.2019 16:00:00 13,3 6,1 5 3 NW 1023,9
18.02.2019 15:00:00 15,0 7,2 2 1 NW 1024,3
18.02.2019 14:00:00 14,6 5,8 5 3 NW 1024,8
18.02.2019 13:00:00 14,9 6,1 5 3 NW 1025,5
18.02.2019 12:00:00 13,8 4,8 8 4 NW 1026,2
18.02.2019 11:00:00 13,9 5,4 4 2 W 1026,5
18.02.2019 10:00:00 12,7 3,8 4 2 SW 1026,4
18.02.2019 09:00:00 9,9 2,9 5 3 SW 1026,5
18.02.2019 08:00:00 6,7 1,9 11 6 SW 1026,3
18.02.2019 07:00:00 6,1 0,8 9 5 SW 1026,1
18.02.2019 06:00:00 6,2 1,1 11 6 SW 1026,0
18.02.2019 05:00:00 6,9 1,1 11 6 SW 1025,7
18.02.2019 04:00:00 7,3 0,9 11 6 SW 1025,6
18.02.2019 03:00:00 7,5 0,1 11 6 SW 1026,2
18.02.2019 02:00:00 8,0 0,1 11 6 SW 1026,6
18.02.2019 01:00:00 8,1 0,5 13 7 SW 1027,0
18.02.2019 00:00:00 8,3 1,1 11 6 SW 1027,2
17.02.2019 23:00:00 8,5 3,7 13 7 SSW 1027,3
17.02.2019 22:00:00 9,1 4,9 9 5 WNW 1027,3
17.02.2019 21:00:00 10,1 5,4 9 5 NW 1027,3
17.02.2019 20:00:00 11,0 6,3 8 4 NW 1027,2
17.02.2019 19:00:00 11,5 5,9 5 3 NNW 1027,3
17.02.2019 18:00:00 12,1 5,0 0 0 N 1027,2
17.02.2019 17:00:00 13,1 6,6 2 1 NNW 1027,0
17.02.2019 16:00:00 12,9 6,4 4 2 NNW 1027,4
17.02.2019 15:00:00 14,8 6,0 5 3 NNW 1027,5
17.02.2019 14:00:00 14,4 6,4 5 3 NNW 1028,0
17.02.2019 13:00:00 14,2 7,4 8 4 NNW 1028,6
17.02.2019 12:00:00 12,9 4,8 11 6 NW 1029,2
17.02.2019 11:00:00 11,7 5,7 18 10 NNW 1029,5
17.02.2019 10:00:00 10,6 5,5 13 7 NW 1029,5
17.02.2019 09:00:00 8,7 3,7 9 5 W 1029,4
17.02.2019 08:00:00 6,7 2,7 13 7 WSW 1029,4
17.02.2019 07:00:00 6,2 2,8 16 9 WSW 1029,0
17.02.2019 06:00:00 6,4 3,5 15 8 WSW 1028,9
17.02.2019 05:00:00 6,4 3,5 13 7 WSW 1029,1
17.02.2019 04:00:00 6,5 3,4 11 6 WSW 1029,2
17.02.2019 03:00:00 7,4 4,5 13 7 W 1029,4
17.02.2019 02:00:00 7,5 4,4 13 7 W 1029,6
17.02.2019 01:00:00 7,6 4,3 13 7 W 1029,7
17.02.2019 00:00:00 7,7 4,4 11 6 WSW 1030,0
16.02.2019 23:00:00 7,7 3,9 13 7 WSW 1030,1
16.02.2019 22:00:00 11,0 6,3 9 5 WNW 1030,2

tt = temperature
td = dewpoint
ff = wind speed
dd = wind direction
ppp = reduced air pressure

Next stations